Terminal Aerodrome Forecast
Issued by NWS Rapid City, SD

Home | Current Version | Previous Version | Graphics & Text | Print | Product List | Glossary On
Versions: 1 2 3 4 5 6 7 8 9 10 11 12 13
000
FTUS43 KUNR 271120
TAFRAP
TAF
KRAP 271120Z 2712/2812 VRB05KT P6SM BKN100
      TEMPO 2712/2715 -SHRA
     FM271500 35015G25KT P6SM -SHRA SCT020 BKN050
     FM272200 34010KT P6SM BKN080
     FM280200 VRB04KT P6SM SKC=

USA.gov is the U.S. government's official web portal to all federal, state and local government web resources and services.